SIK31Y LIEE-LIMJ
Flight info
| Callsign | SIK31Y |
|---|---|
| Flight time | 1h 9m |
| Altitude | 30000 |
| Route | KOVAS DCT DEXUL DCT GIGGI DCT INDUM DCT UPDUT DCT CORSI DCT OKROK DCT AKUTI DCT TORTU M858 UNITA |
| Aircraft | B738/M-SDE2E3FGHIRWXY/LB1 |
Departure
| Time | 2026-04-21 19:35 |
|---|---|
| Airport | Cagliari Elmas Airport (LIEE) |
Arrival
| Time | 2026-04-21 20:44 |
|---|---|
| Airport | Genoa Cristoforo Colombo Airport (LIMJ) |
| Time | Latitude | Longitude | Altitude | Speed | Heading |
|---|---|---|---|---|---|
| 2026-04-21 19:14 | 39.25236 | 9.05947 | 14 ft | 0 kts | 322° |
| 2026-04-21 19:28 | 39.25228 | 9.05956 | 14 ft | 3 kts | 322° |
| 2026-04-21 19:28 | 39.25212 | 9.05972 | 14 ft | 3 kts | 322° |
| 2026-04-21 19:28 | 39.25199 | 9.05992 | 16 ft | 3 kts | 284° |
| 2026-04-21 19:29 | 39.25199 | 9.06018 | 16 ft | 3 kts | 244° |
| 2026-04-21 19:29 | 39.25201 | 9.06023 | 16 ft | 0 kts | 235° |
| 2026-04-21 19:31 | 39.25190 | 9.06003 | 4 ft | 7 kts | 235° |
| 2026-04-21 19:32 | 39.25149 | 9.05935 | 14 ft | 11 kts | 215° |
| 2026-04-21 19:32 | 39.25085 | 9.05971 | 14 ft | 12 kts | 133° |
| 2026-04-21 19:32 | 39.25011 | 9.06075 | 14 ft | 18 kts | 133° |
| 2026-04-21 19:32 | 39.24910 | 9.06194 | 14 ft | 21 kts | 141° |
| 2026-04-21 19:33 | 39.24827 | 9.06267 | 14 ft | 22 kts | 148° |
| 2026-04-21 19:33 | 39.24645 | 9.06414 | 14 ft | 23 kts | 148° |
| 2026-04-21 19:33 | 39.24512 | 9.06522 | 14 ft | 22 kts | 148° |
| 2026-04-21 19:33 | 39.24401 | 9.06585 | 14 ft | 16 kts | 178° |
| 2026-04-21 19:34 | 39.24299 | 9.06549 | 15 ft | 13 kts | 198° |
| 2026-04-21 19:34 | 39.24276 | 9.06538 | 16 ft | 0 kts | 200° |
| 2026-04-21 19:34 | 39.24264 | 9.06533 | 16 ft | 6 kts | 201° |
| 2026-04-21 19:34 | 39.24249 | 9.06477 | 16 ft | 8 kts | 294° |
| 2026-04-21 19:35 | 39.24315 | 9.06393 | 15 ft | 32 kts | 318° |
| 2026-04-21 19:35 | 39.25376 | 9.05164 | 56 ft | 159 kts | 319° |
| 2026-04-21 19:35 | 39.26218 | 9.04183 | 712 ft | 166 kts | 319° |
| 2026-04-21 19:36 | 39.27163 | 9.03294 | 1438 ft | 169 kts | 344° |
| 2026-04-21 19:36 | 39.28393 | 9.03269 | 1935 ft | 193 kts | 5° |
| 2026-04-21 19:36 | 39.29825 | 9.03433 | 2306 ft | 215 kts | 4° |
| 2026-04-21 19:36 | 39.31347 | 9.03586 | 2844 ft | 223 kts | 3° |
| 2026-04-21 19:37 | 39.32903 | 9.03727 | 3565 ft | 226 kts | 2° |
| 2026-04-21 19:37 | 39.34471 | 9.03859 | 4441 ft | 224 kts | 2° |
| 2026-04-21 19:37 | 39.36057 | 9.03983 | 5082 ft | 238 kts | 1° |
| 2026-04-21 19:37 | 39.37812 | 9.04111 | 5410 ft | 263 kts | 1° |
| 2026-04-21 19:38 | 39.39645 | 9.04241 | 6152 ft | 269 kts | 1° |
| 2026-04-21 19:38 | 39.41524 | 9.04373 | 7014 ft | 271 kts | 1° |
| 2026-04-21 19:38 | 39.42798 | 9.04460 | 7576 ft | 273 kts | 1° |
| 2026-04-21 19:38 | 39.45335 | 9.04633 | 8665 ft | 278 kts | 0° |
| 2026-04-21 19:39 | 39.47278 | 9.04810 | 9517 ft | 282 kts | 2° |
| 2026-04-21 19:39 | 39.49242 | 9.05064 | 10256 ft | 288 kts | 3° |
| 2026-04-21 19:39 | 39.51317 | 9.05344 | 10486 ft | 313 kts | 3° |
| 2026-04-21 19:39 | 39.53563 | 9.05646 | 10684 ft | 336 kts | 3° |
| 2026-04-21 19:40 | 39.55963 | 9.05966 | 10954 ft | 355 kts | 3° |
| 2026-04-21 19:40 | 39.58447 | 9.06295 | 11548 ft | 362 kts | 4° |
| 2026-04-21 19:40 | 39.60974 | 9.06627 | 12259 ft | 366 kts | 3° |
| 2026-04-21 19:40 | 39.63523 | 9.06959 | 12964 ft | 371 kts | 3° |
| 2026-04-21 19:41 | 39.66097 | 9.07420 | 13659 ft | 377 kts | 9° |
| 2026-04-21 19:41 | 39.68664 | 9.08229 | 14309 ft | 381 kts | 13° |
| 2026-04-21 19:41 | 39.71225 | 9.09157 | 14990 ft | 383 kts | 13° |
| 2026-04-21 19:41 | 39.73808 | 9.10097 | 15655 ft | 386 kts | 13° |
| 2026-04-21 19:42 | 39.76414 | 9.11015 | 16312 ft | 389 kts | 12° |
| 2026-04-21 19:42 | 39.79042 | 9.11910 | 16947 ft | 392 kts | 12° |
| 2026-04-21 19:42 | 39.80801 | 9.12499 | 17367 ft | 395 kts | 11° |
| 2026-04-21 19:42 | 39.83471 | 9.13389 | 17999 ft | 398 kts | 11° |
| 2026-04-21 19:43 | 39.87072 | 9.14346 | 18727 ft | 400 kts | 2° |
| 2026-04-21 19:43 | 39.89848 | 9.14536 | 19281 ft | 400 kts | 359° |
| 2026-04-21 19:43 | 39.92643 | 9.14649 | 19834 ft | 403 kts | 358° |
| 2026-04-21 19:43 | 39.95458 | 9.14755 | 20375 ft | 406 kts | 358° |
| 2026-04-21 19:44 | 39.97374 | 9.14833 | 20740 ft | 408 kts | 358° |
| 2026-04-21 19:44 | 40.00220 | 9.14960 | 21262 ft | 411 kts | 358° |
| 2026-04-21 19:44 | 40.03091 | 9.15100 | 21780 ft | 414 kts | 358° |
| 2026-04-21 19:44 | 40.05980 | 9.15249 | 22286 ft | 417 kts | 358° |
| 2026-04-21 19:45 | 40.08887 | 9.15402 | 22801 ft | 420 kts | 358° |
| 2026-04-21 19:45 | 40.11817 | 9.15558 | 23287 ft | 423 kts | 358° |
| 2026-04-21 19:45 | 40.14766 | 9.15714 | 23732 ft | 425 kts | 358° |
| 2026-04-21 19:45 | 40.17733 | 9.15872 | 24140 ft | 428 kts | 358° |
| 2026-04-21 19:46 | 40.20717 | 9.16030 | 24573 ft | 430 kts | 358° |
| 2026-04-21 19:46 | 40.23709 | 9.16146 | 24977 ft | 430 kts | 355° |
| 2026-04-21 19:46 | 40.26638 | 9.15804 | 25357 ft | 428 kts | 347° |
| 2026-04-21 19:46 | 40.29520 | 9.14858 | 25740 ft | 426 kts | 339° |
| 2026-04-21 19:47 | 40.32340 | 9.13639 | 26133 ft | 427 kts | 338° |
| 2026-04-21 19:47 | 40.35162 | 9.12389 | 26489 ft | 429 kts | 338° |
| 2026-04-21 19:47 | 40.37996 | 9.11135 | 26925 ft | 429 kts | 338° |
| 2026-04-21 19:47 | 40.40823 | 9.09894 | 27489 ft | 426 kts | 338° |
| 2026-04-21 19:48 | 40.43633 | 9.08673 | 28083 ft | 423 kts | 338° |
| 2026-04-21 19:48 | 40.46421 | 9.07467 | 28608 ft | 421 kts | 338° |
| 2026-04-21 19:48 | 40.49204 | 9.06267 | 29065 ft | 420 kts | 338° |
| 2026-04-21 19:48 | 40.51979 | 9.05072 | 29567 ft | 419 kts | 338° |
| 2026-04-21 19:49 | 40.54743 | 9.03881 | 29968 ft | 419 kts | 338° |
| 2026-04-21 19:49 | 40.60320 | 9.01473 | 29956 ft | 421 kts | 338° |
| 2026-04-21 19:50 | 40.65840 | 8.99090 | 29959 ft | 415 kts | 338° |
| 2026-04-21 19:50 | 40.71346 | 8.96704 | 29968 ft | 417 kts | 338° |
| 2026-04-21 19:51 | 40.76825 | 8.94326 | 29971 ft | 418 kts | 338° |
| 2026-04-21 19:51 | 40.82360 | 8.91921 | 29961 ft | 419 kts | 338° |
| 2026-04-21 19:52 | 40.87904 | 8.89507 | 29950 ft | 419 kts | 338° |
| 2026-04-21 19:52 | 40.93433 | 8.87097 | 29953 ft | 418 kts | 338° |
| 2026-04-21 19:53 | 40.99067 | 8.85132 | 29949 ft | 423 kts | 348° |
| 2026-04-21 19:53 | 41.04985 | 8.84928 | 29950 ft | 426 kts | 355° |
| 2026-04-21 19:54 | 41.10915 | 8.84942 | 29946 ft | 425 kts | 355° |
| 2026-04-21 19:54 | 41.16818 | 8.84895 | 29948 ft | 424 kts | 355° |
| 2026-04-21 19:55 | 41.22708 | 8.84820 | 29946 ft | 422 kts | 353° |
| 2026-04-21 19:55 | 41.28403 | 8.83478 | 29956 ft | 412 kts | 338° |
| 2026-04-21 19:56 | 41.33907 | 8.81471 | 29957 ft | 417 kts | 348° |
| 2026-04-21 19:56 | 41.39749 | 8.81395 | 29962 ft | 423 kts | 358° |
| 2026-04-21 19:57 | 41.45669 | 8.81775 | 29956 ft | 423 kts | 358° |
| 2026-04-21 19:57 | 41.51514 | 8.82135 | 29956 ft | 423 kts | 358° |
| 2026-04-21 19:58 | 41.57401 | 8.82466 | 29963 ft | 423 kts | 357° |
| 2026-04-21 19:58 | 41.63291 | 8.82779 | 29962 ft | 424 kts | 357° |
| 2026-04-21 19:59 | 41.69182 | 8.83088 | 29958 ft | 424 kts | 357° |
| 2026-04-21 19:59 | 41.75071 | 8.83399 | 29959 ft | 423 kts | 357° |
| 2026-04-21 20:00 | 41.80948 | 8.83711 | 29970 ft | 422 kts | 357° |
| 2026-04-21 20:00 | 41.86814 | 8.84023 | 29970 ft | 421 kts | 357° |
| 2026-04-21 20:01 | 41.92667 | 8.84335 | 29961 ft | 420 kts | 357° |
| 2026-04-21 20:01 | 41.98487 | 8.84646 | 29972 ft | 418 kts | 357° |
| 2026-04-21 20:02 | 42.04246 | 8.84955 | 29965 ft | 415 kts | 357° |
| 2026-04-21 20:02 | 42.10013 | 8.85260 | 29964 ft | 414 kts | 357° |
| 2026-04-21 20:03 | 42.15769 | 8.85569 | 29951 ft | 414 kts | 357° |
| 2026-04-21 20:03 | 42.21525 | 8.85879 | 29945 ft | 413 kts | 357° |
| 2026-04-21 20:04 | 42.27270 | 8.86189 | 29948 ft | 412 kts | 357° |
| 2026-04-21 20:04 | 42.32969 | 8.86497 | 29948 ft | 412 kts | 356° |
| 2026-04-21 20:05 | 42.38698 | 8.86805 | 29957 ft | 412 kts | 356° |
| 2026-04-21 20:05 | 42.44434 | 8.87116 | 29956 ft | 412 kts | 356° |
| 2026-04-21 20:06 | 42.50171 | 8.87428 | 29933 ft | 413 kts | 356° |
| 2026-04-21 20:06 | 42.55903 | 8.87738 | 29942 ft | 411 kts | 356° |
| 2026-04-21 20:07 | 42.61614 | 8.88051 | 29947 ft | 410 kts | 356° |
| 2026-04-21 20:07 | 42.67309 | 8.88362 | 29919 ft | 408 kts | 356° |
| 2026-04-21 20:07 | 42.70122 | 8.88518 | 29594 ft | 400 kts | 356° |
| 2026-04-21 20:08 | 42.72867 | 8.88671 | 29317 ft | 391 kts | 356° |
| 2026-04-21 20:08 | 42.75568 | 8.88819 | 29061 ft | 385 kts | 356° |
| 2026-04-21 20:08 | 42.78211 | 8.88964 | 28794 ft | 376 kts | 356° |
| 2026-04-21 20:08 | 42.80802 | 8.89107 | 28518 ft | 369 kts | 356° |
| 2026-04-21 20:09 | 42.83346 | 8.89317 | 28239 ft | 363 kts | 358° |
| 2026-04-21 20:09 | 42.85842 | 8.89610 | 27970 ft | 357 kts | 359° |
| 2026-04-21 20:09 | 42.88292 | 8.89921 | 27668 ft | 351 kts | 359° |
| 2026-04-21 20:09 | 42.90667 | 8.90222 | 27290 ft | 343 kts | 358° |
| 2026-04-21 20:10 | 42.93006 | 8.90514 | 26953 ft | 332 kts | 358° |
| 2026-04-21 20:10 | 42.95278 | 8.90790 | 26599 ft | 323 kts | 358° |
| 2026-04-21 20:10 | 42.97490 | 8.91054 | 26258 ft | 315 kts | 358° |
| 2026-04-21 20:10 | 42.99666 | 8.91309 | 25952 ft | 312 kts | 358° |
| 2026-04-21 20:11 | 43.01824 | 8.91559 | 25625 ft | 310 kts | 358° |
| 2026-04-21 20:11 | 43.03972 | 8.91808 | 25306 ft | 308 kts | 358° |
| 2026-04-21 20:11 | 43.06106 | 8.92056 | 24985 ft | 306 kts | 358° |
| 2026-04-21 20:11 | 43.08227 | 8.92303 | 24667 ft | 305 kts | 358° |
| 2026-04-21 20:12 | 43.10309 | 8.92546 | 24355 ft | 304 kts | 358° |
| 2026-04-21 20:12 | 43.12411 | 8.92792 | 24036 ft | 303 kts | 358° |
| 2026-04-21 20:12 | 43.14506 | 8.93037 | 23705 ft | 302 kts | 358° |
| 2026-04-21 20:12 | 43.16599 | 8.93283 | 23364 ft | 301 kts | 358° |
| 2026-04-21 20:13 | 43.18683 | 8.93528 | 22996 ft | 300 kts | 358° |
| 2026-04-21 20:13 | 43.20759 | 8.93772 | 22671 ft | 298 kts | 358° |
| 2026-04-21 20:13 | 43.22820 | 8.94015 | 22349 ft | 296 kts | 358° |
| 2026-04-21 20:13 | 43.24862 | 8.94247 | 22034 ft | 293 kts | 357° |
| 2026-04-21 20:14 | 43.26889 | 8.94473 | 21720 ft | 291 kts | 357° |
| 2026-04-21 20:14 | 43.28905 | 8.94696 | 21421 ft | 289 kts | 357° |
| 2026-04-21 20:14 | 43.30903 | 8.94919 | 21124 ft | 287 kts | 357° |
| 2026-04-21 20:14 | 43.32863 | 8.95137 | 20832 ft | 285 kts | 357° |
| 2026-04-21 20:15 | 43.34831 | 8.95357 | 20532 ft | 283 kts | 357° |
| 2026-04-21 20:15 | 43.36789 | 8.95576 | 20240 ft | 281 kts | 357° |
| 2026-04-21 20:15 | 43.38731 | 8.95795 | 20008 ft | 277 kts | 357° |
| 2026-04-21 20:15 | 43.40616 | 8.96029 | 19955 ft | 267 kts | 357° |
| 2026-04-21 20:16 | 43.42439 | 8.96267 | 19952 ft | 261 kts | 357° |
| 2026-04-21 20:16 | 43.44246 | 8.96499 | 19961 ft | 262 kts | 357° |
| 2026-04-21 20:16 | 43.46076 | 8.96730 | 19965 ft | 267 kts | 357° |
| 2026-04-21 20:16 | 43.47932 | 8.96966 | 19966 ft | 269 kts | 357° |
| 2026-04-21 20:17 | 43.49791 | 8.97206 | 19956 ft | 267 kts | 357° |
| 2026-04-21 20:17 | 43.51639 | 8.97445 | 19948 ft | 266 kts | 357° |
| 2026-04-21 20:17 | 43.53475 | 8.97682 | 19946 ft | 264 kts | 357° |
| 2026-04-21 20:17 | 43.55302 | 8.97911 | 19944 ft | 262 kts | 356° |
| 2026-04-21 20:18 | 43.56501 | 8.98054 | 19848 ft | 260 kts | 356° |
| 2026-04-21 20:18 | 43.58896 | 8.98331 | 19326 ft | 258 kts | 356° |
| 2026-04-21 20:18 | 43.60696 | 8.98536 | 18831 ft | 261 kts | 356° |
| 2026-04-21 20:18 | 43.62507 | 8.98744 | 18401 ft | 260 kts | 356° |
| 2026-04-21 20:19 | 43.64305 | 8.98953 | 17987 ft | 258 kts | 356° |
| 2026-04-21 20:19 | 43.66091 | 8.99161 | 17543 ft | 257 kts | 356° |
| 2026-04-21 20:19 | 43.67866 | 8.99368 | 17110 ft | 255 kts | 357° |
| 2026-04-21 20:19 | 43.69634 | 8.99573 | 16674 ft | 254 kts | 357° |
| 2026-04-21 20:20 | 43.71392 | 8.99778 | 16246 ft | 253 kts | 357° |
| 2026-04-21 20:20 | 43.73143 | 8.99982 | 15842 ft | 252 kts | 357° |
| 2026-04-21 20:20 | 43.74889 | 9.00185 | 15455 ft | 253 kts | 358° |
| 2026-04-21 20:20 | 43.76642 | 9.00390 | 15170 ft | 252 kts | 358° |
| 2026-04-21 20:21 | 43.78377 | 9.00594 | 15012 ft | 249 kts | 358° |
| 2026-04-21 20:21 | 43.80125 | 9.00796 | 14998 ft | 255 kts | 358° |
| 2026-04-21 20:21 | 43.81894 | 9.01004 | 14959 ft | 254 kts | 358° |
| 2026-04-21 20:21 | 43.83642 | 9.01214 | 14952 ft | 250 kts | 358° |
| 2026-04-21 20:22 | 43.85341 | 9.01418 | 14953 ft | 248 kts | 358° |
| 2026-04-21 20:22 | 43.88798 | 9.01829 | 14970 ft | 251 kts | 358° |
| 2026-04-21 20:22 | 43.90543 | 9.02037 | 14964 ft | 252 kts | 358° |
| 2026-04-21 20:23 | 43.92289 | 9.02245 | 14962 ft | 253 kts | 358° |
| 2026-04-21 20:23 | 43.94029 | 9.02725 | 14930 ft | 263 kts | 19° |
| 2026-04-21 20:23 | 43.95532 | 9.04226 | 14960 ft | 274 kts | 40° |
| 2026-04-21 20:23 | 43.96778 | 9.06248 | 14972 ft | 276 kts | 44° |
| 2026-04-21 20:24 | 43.98001 | 9.08308 | 14960 ft | 276 kts | 44° |
| 2026-04-21 20:24 | 43.99231 | 9.10358 | 14959 ft | 276 kts | 43° |
| 2026-04-21 20:24 | 44.00470 | 9.12402 | 14956 ft | 276 kts | 43° |
| 2026-04-21 20:24 | 44.01710 | 9.14439 | 14955 ft | 276 kts | 43° |
| 2026-04-21 20:25 | 44.02913 | 9.16528 | 14945 ft | 277 kts | 46° |
| 2026-04-21 20:25 | 44.04069 | 9.18664 | 14958 ft | 277 kts | 46° |
| 2026-04-21 20:25 | 44.05224 | 9.20802 | 14956 ft | 276 kts | 46° |
| 2026-04-21 20:25 | 44.06367 | 9.22905 | 14948 ft | 276 kts | 46° |
| 2026-04-21 20:26 | 44.07526 | 9.25031 | 14965 ft | 275 kts | 46° |
| 2026-04-21 20:26 | 44.08687 | 9.27156 | 14960 ft | 275 kts | 45° |
| 2026-04-21 20:26 | 44.10055 | 9.28902 | 14958 ft | 261 kts | 22° |
| 2026-04-21 20:26 | 44.11699 | 9.29765 | 14956 ft | 248 kts | 1° |
| 2026-04-21 20:27 | 44.13384 | 9.29774 | 14974 ft | 239 kts | 345° |
| 2026-04-21 20:27 | 44.14949 | 9.29104 | 14952 ft | 233 kts | 326° |
| 2026-04-21 20:27 | 44.16259 | 9.27823 | 14975 ft | 231 kts | 319° |
| 2026-04-21 20:27 | 44.17535 | 9.26447 | 14967 ft | 232 kts | 319° |
| 2026-04-21 20:28 | 44.18812 | 9.25060 | 14971 ft | 234 kts | 319° |
| 2026-04-21 20:28 | 44.20103 | 9.23655 | 14967 ft | 235 kts | 319° |
| 2026-04-21 20:28 | 44.21368 | 9.22208 | 14959 ft | 235 kts | 309° |
| 2026-04-21 20:28 | 44.22151 | 9.20253 | 14984 ft | 232 kts | 288° |
| 2026-04-21 20:29 | 44.22409 | 9.18022 | 14967 ft | 235 kts | 272° |
| 2026-04-21 20:29 | 44.22129 | 9.15754 | 14906 ft | 243 kts | 255° |
| 2026-04-21 20:29 | 44.21251 | 9.13675 | 14634 ft | 257 kts | 233° |
| 2026-04-21 20:29 | 44.19802 | 9.12140 | 14397 ft | 269 kts | 211° |
| 2026-04-21 20:30 | 44.17985 | 9.11528 | 14150 ft | 279 kts | 185° |
| 2026-04-21 20:30 | 44.16072 | 9.12066 | 13895 ft | 286 kts | 158° |
| 2026-04-21 20:30 | 44.14493 | 9.13729 | 13641 ft | 287 kts | 129° |
| 2026-04-21 20:30 | 44.13589 | 9.16155 | 13320 ft | 281 kts | 102° |
| 2026-04-21 20:31 | 44.13426 | 9.18828 | 12836 ft | 276 kts | 83° |
| 2026-04-21 20:31 | 44.13227 | 9.21476 | 12365 ft | 279 kts | 114° |
| 2026-04-21 20:31 | 44.12549 | 9.23029 | 12106 ft | 277 kts | 130° |
| 2026-04-21 20:31 | 44.11224 | 9.24928 | 11789 ft | 272 kts | 140° |
| 2026-04-21 20:32 | 44.09799 | 9.26598 | 11429 ft | 270 kts | 143° |
| 2026-04-21 20:32 | 44.08277 | 9.28155 | 11074 ft | 266 kts | 157° |
| 2026-04-21 20:32 | 44.06553 | 9.28719 | 10694 ft | 255 kts | 187° |
| 2026-04-21 20:32 | 44.04893 | 9.28106 | 10333 ft | 243 kts | 214° |
| 2026-04-21 20:33 | 44.03638 | 9.26611 | 9952 ft | 235 kts | 238° |
| 2026-04-21 20:33 | 44.02956 | 9.24596 | 9554 ft | 229 kts | 261° |
| 2026-04-21 20:33 | 44.02941 | 9.22415 | 9116 ft | 227 kts | 287° |
| 2026-04-21 20:33 | 44.03705 | 9.20529 | 8691 ft | 227 kts | 314° |
| 2026-04-21 20:34 | 44.05032 | 9.19349 | 8283 ft | 232 kts | 341° |
| 2026-04-21 20:34 | 44.06646 | 9.19181 | 8000 ft | 237 kts | 9° |
| 2026-04-21 20:34 | 44.08175 | 9.20020 | 7789 ft | 237 kts | 27° |
| 2026-04-21 20:34 | 44.09588 | 9.21209 | 7546 ft | 237 kts | 30° |
| 2026-04-21 20:35 | 44.10981 | 9.22445 | 7315 ft | 237 kts | 30° |
| 2026-04-21 20:35 | 44.12375 | 9.23678 | 7068 ft | 237 kts | 30° |
| 2026-04-21 20:35 | 44.13774 | 9.24900 | 6814 ft | 237 kts | 30° |
| 2026-04-21 20:35 | 44.15177 | 9.26112 | 6586 ft | 237 kts | 30° |
| 2026-04-21 20:36 | 44.16581 | 9.27320 | 6339 ft | 238 kts | 30° |
| 2026-04-21 20:36 | 44.17988 | 9.28527 | 6095 ft | 237 kts | 30° |
| 2026-04-21 20:36 | 44.19357 | 9.29701 | 5999 ft | 231 kts | 30° |
| 2026-04-21 20:36 | 44.20759 | 9.30715 | 5972 ft | 225 kts | 12° |
| 2026-04-21 20:37 | 44.22279 | 9.30640 | 5993 ft | 221 kts | 340° |
| 2026-04-21 20:37 | 44.23638 | 9.29604 | 6000 ft | 227 kts | 323° |
| 2026-04-21 20:37 | 44.24901 | 9.28266 | 5998 ft | 229 kts | 322° |
| 2026-04-21 20:37 | 44.26153 | 9.26904 | 5981 ft | 227 kts | 322° |
| 2026-04-21 20:38 | 44.27402 | 9.25559 | 5977 ft | 226 kts | 322° |
| 2026-04-21 20:38 | 44.28642 | 9.24228 | 5926 ft | 227 kts | 322° |
| 2026-04-21 20:38 | 44.29926 | 9.22858 | 5554 ft | 233 kts | 322° |
| 2026-04-21 20:38 | 44.31214 | 9.21491 | 5191 ft | 231 kts | 323° |
| 2026-04-21 20:39 | 44.32486 | 9.20143 | 4833 ft | 228 kts | 323° |
| 2026-04-21 20:39 | 44.33633 | 9.18667 | 4476 ft | 223 kts | 301° |
| 2026-04-21 20:39 | 44.34165 | 9.16699 | 4282 ft | 212 kts | 286° |
| 2026-04-21 20:39 | 44.34611 | 9.14781 | 4059 ft | 204 kts | 290° |
| 2026-04-21 20:40 | 44.35071 | 9.12929 | 3869 ft | 200 kts | 288° |
| 2026-04-21 20:40 | 44.35489 | 9.11071 | 3695 ft | 200 kts | 287° |
| 2026-04-21 20:40 | 44.35888 | 9.09222 | 3603 ft | 198 kts | 287° |
| 2026-04-21 20:40 | 44.36290 | 9.07337 | 3348 ft | 205 kts | 287° |
| 2026-04-21 20:41 | 44.36699 | 9.05419 | 3057 ft | 205 kts | 287° |
| 2026-04-21 20:41 | 44.37103 | 9.03520 | 2771 ft | 202 kts | 287° |
| 2026-04-21 20:41 | 44.37503 | 9.01650 | 2491 ft | 199 kts | 287° |
| 2026-04-21 20:41 | 44.37897 | 8.99806 | 2210 ft | 196 kts | 287° |
| 2026-04-21 20:42 | 44.38283 | 8.98004 | 1930 ft | 189 kts | 287° |
| 2026-04-21 20:42 | 44.38644 | 8.96317 | 1706 ft | 173 kts | 287° |
| 2026-04-21 20:42 | 44.38976 | 8.94765 | 1424 ft | 159 kts | 287° |
| 2026-04-21 20:42 | 44.39287 | 8.93315 | 1204 ft | 153 kts | 287° |
| 2026-04-21 20:43 | 44.39596 | 8.91879 | 998 ft | 155 kts | 287° |
| 2026-04-21 20:43 | 44.39906 | 8.90431 | 780 ft | 155 kts | 287° |
| 2026-04-21 20:43 | 44.40216 | 8.88989 | 549 ft | 155 kts | 287° |
| 2026-04-21 20:43 | 44.40531 | 8.87538 | 311 ft | 156 kts | 285° |
| 2026-04-21 20:44 | 44.40818 | 8.86090 | 121 ft | 154 kts | 285° |
| 2026-04-21 20:44 | 44.41097 | 8.84678 | 20 ft | 139 kts | 285° |
| 2026-04-21 20:44 | 44.41295 | 8.83679 | 19 ft | 77 kts | 285° |
| 2026-04-21 20:44 | 44.41395 | 8.83195 | 21 ft | 36 kts | 300° |
| 2026-04-21 20:45 | 44.41509 | 8.83087 | 23 ft | 15 kts | 6° |
| 2026-04-21 20:45 | 44.41543 | 8.83202 | 28 ft | 15 kts | 106° |
| 2026-04-21 20:45 | 44.41517 | 8.83333 | 22 ft | 14 kts | 105° |
| 2026-04-21 20:45 | 44.41491 | 8.83458 | 21 ft | 13 kts | 106° |
| 2026-04-21 20:46 | 44.41468 | 8.83579 | 22 ft | 13 kts | 105° |
| 2026-04-21 20:46 | 44.41440 | 8.83724 | 19 ft | 19 kts | 104° |
| 2026-04-21 20:46 | 44.41402 | 8.83918 | 18 ft | 21 kts | 105° |
| 2026-04-21 20:46 | 44.41363 | 8.84109 | 16 ft | 20 kts | 105° |
| 2026-04-21 20:47 | 44.41326 | 8.84297 | 19 ft | 20 kts | 106° |
| 2026-04-21 20:47 | 44.41327 | 8.84429 | 18 ft | 13 kts | 56° |
| 2026-04-21 20:47 | 44.41380 | 8.84527 | 17 ft | 13 kts | 52° |
| 2026-04-21 20:47 | 44.41412 | 8.84633 | 17 ft | 12 kts | 99° |
| 2026-04-21 20:48 | 44.41392 | 8.84747 | 17 ft | 12 kts | 104° |
| 2026-04-21 20:48 | 44.41380 | 8.84825 | 17 ft | 8 kts | 85° |
| 2026-04-21 20:48 | 44.41404 | 8.84888 | 19 ft | 7 kts | 60° |
| 2026-04-21 20:48 | 44.41422 | 8.84930 | 17 ft | 5 kts | 60° |
| 2026-04-21 20:49 | 44.41430 | 8.84950 | 17 ft | 0 kts | 60° |